sensor_id;sensor_type;location;lat;lon;timestamp;temperature;humidity
57664;DHT22;43493;53.098;6.064;2022-12-18T00:01:57;-1.40;99.90
57664;DHT22;43493;53.098;6.064;2022-12-18T00:04:25;-1.40;99.90
57664;DHT22;43493;53.098;6.064;2022-12-18T00:06:51;-1.40;99.90
57664;DHT22;43493;53.098;6.064;2022-12-18T00:09:18;-1.40;99.90
57664;DHT22;43493;53.098;6.064;2022-12-18T00:11:44;-1.50;99.90
57664;DHT22;43493;53.098;6.064;2022-12-18T00:14:12;-1.50;99.90
57664;DHT22;43493;53.098;6.064;2022-12-18T00:16:38;-1.60;99.90
57664;DHT22;43493;53.098;6.064;2022-12-18T00:19:04;-1.50;99.90
57664;DHT22;43493;53.098;6.064;2022-12-18T00:21:32;-1.50;99.90
57664;DHT22;43493;53.098;6.064;2022-12-18T00:23:59;-1.60;99.90
57664;DHT22;43493;53.098;6.064;2022-12-18T00:26:27;-1.50;99.90
57664;DHT22;43493;53.098;6.064;2022-12-18T00:28:53;-1.60;99.90
57664;DHT22;43493;53.098;6.064;2022-12-18T00:31:22;-1.50;99.90
57664;DHT22;43493;53.098;6.064;2022-12-18T00:33:48;-1.50;99.90
57664;DHT22;43493;53.098;6.064;2022-12-18T00:36:20;-1.60;99.90
57664;DHT22;43493;53.098;6.064;2022-12-18T00:38:47;-1.60;99.90
57664;DHT22;43493;53.098;6.064;2022-12-18T00:41:15;-1.60;99.90
57664;DHT22;43493;53.098;6.064;2022-12-18T00:44:01;-1.60;99.90
57664;DHT22;43493;53.098;6.064;2022-12-18T00:46:27;-1.50;99.90
57664;DHT22;43493;53.098;6.064;2022-12-18T00:48:53;-1.60;99.90
57664;DHT22;43493;53.098;6.064;2022-12-18T00:51:18;-1.50;99.90
57664;DHT22;43493;53.098;6.064;2022-12-18T00:53:44;-1.60;99.90
57664;DHT22;43493;53.098;6.064;2022-12-18T00:56:10;-1.70;99.90
57664;DHT22;43493;53.098;6.064;2022-12-18T00:58:35;-1.70;99.90
57664;DHT22;43493;53.098;6.064;2022-12-18T01:01:01;-1.70;99.90
57664;DHT22;43493;53.098;6.064;2022-12-18T01:03:28;-1.70;99.90
57664;DHT22;43493;53.098;6.064;2022-12-18T01:05:54;-1.80;99.90
57664;DHT22;43493;53.098;6.064;2022-12-18T01:08:20;-1.80;99.90
57664;DHT22;43493;53.098;6.064;2022-12-18T01:10:46;-1.80;99.90
57664;DHT22;43493;53.098;6.064;2022-12-18T01:13:11;-1.80;99.90
57664;DHT22;43493;53.098;6.064;2022-12-18T01:15:37;-1.90;99.90
57664;DHT22;43493;53.098;6.064;2022-12-18T01:18:03;-1.90;99.90
57664;DHT22;43493;53.098;6.064;2022-12-18T01:20:28;-1.80;99.90
57664;DHT22;43493;53.098;6.064;2022-12-18T01:22:54;-1.80;99.90
57664;DHT22;43493;53.098;6.064;2022-12-18T01:25:20;-1.80;99.90
57664;DHT22;43493;53.098;6.064;2022-12-18T01:27:45;-1.80;99.90
57664;DHT22;43493;53.098;6.064;2022-12-18T01:30:11;-1.80;99.90
57664;DHT22;43493;53.098;6.064;2022-12-18T01:32:37;-1.80;99.90
57664;DHT22;43493;53.098;6.064;2022-12-18T01:35:03;-1.90;99.90
57664;DHT22;43493;53.098;6.064;2022-12-18T01:37:29;-1.90;99.90
57664;DHT22;43493;53.098;6.064;2022-12-18T01:39:55;-2.00;99.90
57664;DHT22;43493;53.098;6.064;2022-12-18T01:42:21;-2.10;99.90
57664;DHT22;43493;53.098;6.064;2022-12-18T01:47:26;-2.00;99.90
57664;DHT22;43493;53.098;6.064;2022-12-18T01:49:54;-2.00;99.90
57664;DHT22;43493;53.098;6.064;2022-12-18T01:52:20;-2.00;99.90
57664;DHT22;43493;53.098;6.064;2022-12-18T01:54:48;-2.00;99.90
57664;DHT22;43493;53.098;6.064;2022-12-18T01:57:15;-2.10;99.90
57664;DHT22;43493;53.098;6.064;2022-12-18T01:59:43;-2.10;99.90
57664;DHT22;43493;53.098;6.064;2022-12-18T02:02:10;-2.00;99.90
57664;DHT22;43493;53.098;6.064;2022-12-18T02:04:36;-2.10;99.90
57664;DHT22;43493;53.098;6.064;2022-12-18T02:10:13;-2.20;99.90
57664;DHT22;43493;53.098;6.064;2022-12-18T02:15:12;-2.20;99.90
57664;DHT22;43493;53.098;6.064;2022-12-18T02:18:32;-2.20;99.90
57664;DHT22;43493;53.098;6.064;2022-12-18T02:24:04;-2.40;99.90
57664;DHT22;43493;53.098;6.064;2022-12-18T02:26:42;-2.40;99.90
57664;DHT22;43493;53.098;6.064;2022-12-18T02:29:16;-2.40;99.90
57664;DHT22;43493;53.098;6.064;2022-12-18T02:31:47;-2.40;99.90
57664;DHT22;43493;53.098;6.064;2022-12-18T02:34:15;-2.40;99.90
57664;DHT22;43493;53.098;6.064;2022-12-18T02:36:44;-2.40;99.90
57664;DHT22;43493;53.098;6.064;2022-12-18T02:39:12;-2.40;99.90
57664;DHT22;43493;53.098;6.064;2022-12-18T02:41:39;-2.40;99.90
57664;DHT22;43493;53.098;6.064;2022-12-18T02:44:10;-2.50;99.90
57664;DHT22;43493;53.098;6.064;2022-12-18T02:46:42;-2.50;99.90
57664;DHT22;43493;53.098;6.064;2022-12-18T02:49:27;-2.50;99.90
57664;DHT22;43493;53.098;6.064;2022-12-18T02:52:06;-2.50;99.90
57664;DHT22;43493;53.098;6.064;2022-12-18T02:54:49;-2.50;99.90
57664;DHT22;43493;53.098;6.064;2022-12-18T03:00:14;-2.60;99.90
57664;DHT22;43493;53.098;6.064;2022-12-18T03:03:10;-2.60;99.90
57664;DHT22;43493;53.098;6.064;2022-12-18T03:05:49;-2.60;99.90
57664;DHT22;43493;53.098;6.064;2022-12-18T03:08:19;-1.90;99.90
57664;DHT22;43493;53.098;6.064;2022-12-18T03:10:51;-2.70;99.90
57664;DHT22;43493;53.098;6.064;2022-12-18T03:15:59;-2.40;99.90
57664;DHT22;43493;53.098;6.064;2022-12-18T03:18:30;-2.70;99.90
57664;DHT22;43493;53.098;6.064;2022-12-18T03:21:02;-2.40;99.90
57664;DHT22;43493;53.098;6.064;2022-12-18T03:23:34;-2.50;99.90
57664;DHT22;43493;53.098;6.064;2022-12-18T03:26:06;-2.80;99.90
57664;DHT22;43493;53.098;6.064;2022-12-18T03:28:36;-2.80;99.90
57664;DHT22;43493;53.098;6.064;2022-12-18T03:31:05;-2.80;99.90
57664;DHT22;43493;53.098;6.064;2022-12-18T03:33:38;-2.80;99.90
57664;DHT22;43493;53.098;6.064;2022-12-18T03:36:06;-2.80;99.90
57664;DHT22;43493;53.098;6.064;2022-12-18T03:38:32;-2.80;99.90
57664;DHT22;43493;53.098;6.064;2022-12-18T03:43:43;-2.90;99.90
57664;DHT22;43493;53.098;6.064;2022-12-18T03:46:26;-2.90;99.90
57664;DHT22;43493;53.098;6.064;2022-12-18T03:48:57;-2.90;99.90
57664;DHT22;43493;53.098;6.064;2022-12-18T03:51:35;-2.90;99.90
57664;DHT22;43493;53.098;6.064;2022-12-18T03:54:04;-2.90;99.90
57664;DHT22;43493;53.098;6.064;2022-12-18T03:56:33;-2.90;99.90
57664;DHT22;43493;53.098;6.064;2022-12-18T03:59:02;-2.90;99.90
57664;DHT22;43493;53.098;6.064;2022-12-18T04:01:32;-2.90;99.90
57664;DHT22;43493;53.098;6.064;2022-12-18T04:04:00;-2.90;99.90
57664;DHT22;43493;53.098;6.064;2022-12-18T04:06:28;-2.90;99.90
57664;DHT22;43493;53.098;6.064;2022-12-18T04:08:57;-2.90;99.90
57664;DHT22;43493;53.098;6.064;2022-12-18T04:11:22;-2.90;99.90
57664;DHT22;43493;53.098;6.064;2022-12-18T04:13:48;-2.90;99.90
57664;DHT22;43493;53.098;6.064;2022-12-18T04:16:14;-2.90;99.90
57664;DHT22;43493;53.098;6.064;2022-12-18T04:18:39;-2.90;99.90
57664;DHT22;43493;53.098;6.064;2022-12-18T04:21:05;-3.00;99.90
57664;DHT22;43493;53.098;6.064;2022-12-18T04:23:31;-3.00;99.90
57664;DHT22;43493;53.098;6.064;2022-12-18T04:25:57;-3.00;99.90
57664;DHT22;43493;53.098;6.064;2022-12-18T04:28:22;-3.00;99.90
57664;DHT22;43493;53.098;6.064;2022-12-18T04:30:48;-3.00;99.90
57664;DHT22;43493;53.098;6.064;2022-12-18T04:33:17;-2.90;99.90
57664;DHT22;43493;53.098;6.064;2022-12-18T04:35:43;-2.90;99.90
57664;DHT22;43493;53.098;6.064;2022-12-18T04:38:09;-2.90;99.90
57664;DHT22;43493;53.098;6.064;2022-12-18T04:40:36;-2.90;99.90
57664;DHT22;43493;53.098;6.064;2022-12-18T04:43:03;-3.00;99.90
57664;DHT22;43493;53.098;6.064;2022-12-18T04:45:30;-2.90;99.90
57664;DHT22;43493;53.098;6.064;2022-12-18T04:47:57;-3.00;99.90
57664;DHT22;43493;53.098;6.064;2022-12-18T04:50:23;-3.10;99.90
57664;DHT22;43493;53.098;6.064;2022-12-18T04:52:49;-3.20;99.90
57664;DHT22;43493;53.098;6.064;2022-12-18T04:55:15;-3.20;99.90
57664;DHT22;43493;53.098;6.064;2022-12-18T04:57:41;-3.20;99.90
57664;DHT22;43493;53.098;6.064;2022-12-18T05:00:07;-3.20;99.90
57664;DHT22;43493;53.098;6.064;2022-12-18T05:02:33;-3.10;99.90
57664;DHT22;43493;53.098;6.064;2022-12-18T05:04:58;-3.20;99.90
57664;DHT22;43493;53.098;6.064;2022-12-18T05:07:24;-3.20;99.90
57664;DHT22;43493;53.098;6.064;2022-12-18T05:09:50;-3.20;99.90
57664;DHT22;43493;53.098;6.064;2022-12-18T05:12:16;-3.30;99.90
57664;DHT22;43493;53.098;6.064;2022-12-18T05:14:41;-3.30;99.90
57664;DHT22;43493;53.098;6.064;2022-12-18T05:17:07;-3.40;99.90
57664;DHT22;43493;53.098;6.064;2022-12-18T05:19:33;-3.40;99.90
57664;DHT22;43493;53.098;6.064;2022-12-18T05:21:58;-3.50;99.90
57664;DHT22;43493;53.098;6.064;2022-12-18T05:24:24;-3.40;99.90
57664;DHT22;43493;53.098;6.064;2022-12-18T05:26:50;-3.40;99.90
57664;DHT22;43493;53.098;6.064;2022-12-18T05:29:16;-3.30;99.90
57664;DHT22;43493;53.098;6.064;2022-12-18T05:31:41;-3.30;99.90
57664;DHT22;43493;53.098;6.064;2022-12-18T05:34:07;-3.30;99.90
57664;DHT22;43493;53.098;6.064;2022-12-18T05:36:33;-3.40;99.90
57664;DHT22;43493;53.098;6.064;2022-12-18T05:38:58;-3.30;99.90
57664;DHT22;43493;53.098;6.064;2022-12-18T05:41:25;-3.30;99.90
57664;DHT22;43493;53.098;6.064;2022-12-18T05:43:51;-3.30;99.90
57664;DHT22;43493;53.098;6.064;2022-12-18T05:46:17;-3.20;99.90
57664;DHT22;43493;53.098;6.064;2022-12-18T05:48:44;-3.20;99.90
57664;DHT22;43493;53.098;6.064;2022-12-18T05:51:15;-3.20;99.90
57664;DHT22;43493;53.098;6.064;2022-12-18T05:53:41;-3.20;99.90
57664;DHT22;43493;53.098;6.064;2022-12-18T05:56:10;-3.10;99.90
57664;DHT22;43493;53.098;6.064;2022-12-18T05:58:36;-3.10;99.90
57664;DHT22;43493;53.098;6.064;2022-12-18T06:01:11;-3.10;99.90
57664;DHT22;43493;53.098;6.064;2022-12-18T06:03:37;-3.10;99.90
57664;DHT22;43493;53.098;6.064;2022-12-18T06:06:03;-3.10;99.90
57664;DHT22;43493;53.098;6.064;2022-12-18T06:08:29;-3.20;99.90
57664;DHT22;43493;53.098;6.064;2022-12-18T06:10:55;-3.30;99.90
57664;DHT22;43493;53.098;6.064;2022-12-18T06:13:21;-3.30;99.90
57664;DHT22;43493;53.098;6.064;2022-12-18T06:15:47;-3.40;99.90
57664;DHT22;43493;53.098;6.064;2022-12-18T06:18:12;-3.40;99.90
57664;DHT22;43493;53.098;6.064;2022-12-18T06:20:38;-3.50;99.90
57664;DHT22;43493;53.098;6.064;2022-12-18T06:23:06;-3.50;99.90
57664;DHT22;43493;53.098;6.064;2022-12-18T06:25:32;-3.60;99.90
57664;DHT22;43493;53.098;6.064;2022-12-18T06:27:58;-3.60;99.90
57664;DHT22;43493;53.098;6.064;2022-12-18T06:30:24;-3.60;99.90
57664;DHT22;43493;53.098;6.064;2022-12-18T06:32:51;-3.60;99.90
57664;DHT22;43493;53.098;6.064;2022-12-18T06:35:16;-3.60;99.90
57664;DHT22;43493;53.098;6.064;2022-12-18T06:37:42;-3.70;99.90
57664;DHT22;43493;53.098;6.064;2022-12-18T06:40:08;-3.70;99.90
57664;DHT22;43493;53.098;6.064;2022-12-18T06:42:34;-3.70;99.90
57664;DHT22;43493;53.098;6.064;2022-12-18T06:44:59;-3.70;99.90
57664;DHT22;43493;53.098;6.064;2022-12-18T06:47:25;-3.70;99.90
57664;DHT22;43493;53.098;6.064;2022-12-18T06:49:51;-3.70;99.90
57664;DHT22;43493;53.098;6.064;2022-12-18T06:52:16;-3.80;99.90
57664;DHT22;43493;53.098;6.064;2022-12-18T06:54:42;-3.80;99.90
57664;DHT22;43493;53.098;6.064;2022-12-18T06:57:08;-3.80;99.90
57664;DHT22;43493;53.098;6.064;2022-12-18T06:59:33;-3.80;99.90
57664;DHT22;43493;53.098;6.064;2022-12-18T07:01:59;-3.80;99.90
57664;DHT22;43493;53.098;6.064;2022-12-18T07:04:31;-3.80;99.90
57664;DHT22;43493;53.098;6.064;2022-12-18T07:06:57;-3.80;99.90
57664;DHT22;43493;53.098;6.064;2022-12-18T07:09:23;-3.80;99.90
57664;DHT22;43493;53.098;6.064;2022-12-18T07:11:49;-3.80;99.90
57664;DHT22;43493;53.098;6.064;2022-12-18T07:14:15;-3.90;99.90
57664;DHT22;43493;53.098;6.064;2022-12-18T07:16:40;-3.90;99.90
57664;DHT22;43493;53.098;6.064;2022-12-18T07:19:06;-3.90;99.90
57664;DHT22;43493;53.098;6.064;2022-12-18T07:21:32;-4.00;99.90
57664;DHT22;43493;53.098;6.064;2022-12-18T07:23:58;-4.00;99.90
57664;DHT22;43493;53.098;6.064;2022-12-18T07:26:23;-4.00;99.90
57664;DHT22;43493;53.098;6.064;2022-12-18T07:28:50;-3.90;99.90
57664;DHT22;43493;53.098;6.064;2022-12-18T07:31:20;-4.00;99.90
57664;DHT22;43493;53.098;6.064;2022-12-18T07:33:47;-4.00;99.90
57664;DHT22;43493;53.098;6.064;2022-12-18T07:36:13;-3.90;99.90
57664;DHT22;43493;53.098;6.064;2022-12-18T07:38:40;-3.90;99.90
57664;DHT22;43493;53.098;6.064;2022-12-18T07:41:10;-3.90;99.90
57664;DHT22;43493;53.098;6.064;2022-12-18T07:43:37;-3.90;99.90
57664;DHT22;43493;53.098;6.064;2022-12-18T07:46:03;-3.90;99.90
57664;DHT22;43493;53.098;6.064;2022-12-18T07:48:29;-3.80;99.90
57664;DHT22;43493;53.098;6.064;2022-12-18T07:51:03;-3.80;99.90
57664;DHT22;43493;53.098;6.064;2022-12-18T07:53:29;-3.80;99.90
57664;DHT22;43493;53.098;6.064;2022-12-18T07:56:00;-3.70;99.90
57664;DHT22;43493;53.098;6.064;2022-12-18T07:58:27;-3.70;99.90
57664;DHT22;43493;53.098;6.064;2022-12-18T08:00:53;-3.70;99.90
57664;DHT22;43493;53.098;6.064;2022-12-18T08:03:20;-3.70;99.90
57664;DHT22;43493;53.098;6.064;2022-12-18T08:05:46;-3.60;99.90
57664;DHT22;43493;53.098;6.064;2022-12-18T08:08:14;-3.60;99.90
57664;DHT22;43493;53.098;6.064;2022-12-18T08:10:40;-3.60;99.90
57664;DHT22;43493;53.098;6.064;2022-12-18T08:13:06;-3.50;99.90
57664;DHT22;43493;53.098;6.064;2022-12-18T08:15:31;-3.50;99.90
57664;DHT22;43493;53.098;6.064;2022-12-18T08:17:57;-3.50;99.90
57664;DHT22;43493;53.098;6.064;2022-12-18T08:20:23;-3.50;99.90
57664;DHT22;43493;53.098;6.064;2022-12-18T08:22:48;-3.40;99.90
57664;DHT22;43493;53.098;6.064;2022-12-18T08:25:14;-3.40;99.90
57664;DHT22;43493;53.098;6.064;2022-12-18T08:27:40;-3.30;99.90
57664;DHT22;43493;53.098;6.064;2022-12-18T08:30:06;-3.40;99.90
57664;DHT22;43493;53.098;6.064;2022-12-18T08:32:32;-3.30;99.90
57664;DHT22;43493;53.098;6.064;2022-12-18T08:34:58;-3.30;99.90
57664;DHT22;43493;53.098;6.064;2022-12-18T08:37:24;-3.20;99.90
57664;DHT22;43493;53.098;6.064;2022-12-18T08:39:50;-3.30;99.90
57664;DHT22;43493;53.098;6.064;2022-12-18T08:42:16;-3.20;99.90
57664;DHT22;43493;53.098;6.064;2022-12-18T08:45:00;-3.10;99.90
57664;DHT22;43493;53.098;6.064;2022-12-18T08:47:26;-3.10;99.90
57664;DHT22;43493;53.098;6.064;2022-12-18T08:49:52;-3.10;99.90
57664;DHT22;43493;53.098;6.064;2022-12-18T08:52:18;-3.00;99.90
57664;DHT22;43493;53.098;6.064;2022-12-18T08:54:50;-3.10;99.90
57664;DHT22;43493;53.098;6.064;2022-12-18T08:57:15;-3.00;99.90
57664;DHT22;43493;53.098;6.064;2022-12-18T08:59:41;-2.90;99.90
57664;DHT22;43493;53.098;6.064;2022-12-18T09:02:10;-2.90;99.90
57664;DHT22;43493;53.098;6.064;2022-12-18T09:04:35;-2.80;99.90
57664;DHT22;43493;53.098;6.064;2022-12-18T09:07:01;-2.80;99.90
57664;DHT22;43493;53.098;6.064;2022-12-18T09:09:27;-2.70;99.90
57664;DHT22;43493;53.098;6.064;2022-12-18T09:11:52;-2.60;99.90
57664;DHT22;43493;53.098;6.064;2022-12-18T09:14:18;-2.60;99.90
57664;DHT22;43493;53.098;6.064;2022-12-18T09:16:44;-2.50;99.90
57664;DHT22;43493;53.098;6.064;2022-12-18T09:19:09;-2.50;99.90
57664;DHT22;43493;53.098;6.064;2022-12-18T09:21:35;-2.40;99.90
57664;DHT22;43493;53.098;6.064;2022-12-18T09:24:01;-2.40;99.90
57664;DHT22;43493;53.098;6.064;2022-12-18T09:26:27;-2.30;99.90
57664;DHT22;43493;53.098;6.064;2022-12-18T09:28:53;-2.20;99.90
57664;DHT22;43493;53.098;6.064;2022-12-18T09:31:22;-2.20;99.90
57664;DHT22;43493;53.098;6.064;2022-12-18T09:33:48;-2.10;99.90
57664;DHT22;43493;53.098;6.064;2022-12-18T09:36:15;-2.00;99.90
57664;DHT22;43493;53.098;6.064;2022-12-18T09:38:42;-2.00;99.90
57664;DHT22;43493;53.098;6.064;2022-12-18T09:44:01;-2.00;99.90
57664;DHT22;43493;53.098;6.064;2022-12-18T09:46:34;-1.90;99.90
57664;DHT22;43493;53.098;6.064;2022-12-18T09:49:03;-1.90;99.90
57664;DHT22;43493;53.098;6.064;2022-12-18T09:51:37;-1.90;99.90
57664;DHT22;43493;53.098;6.064;2022-12-18T09:54:36;-1.90;99.90
57664;DHT22;43493;53.098;6.064;2022-12-18T09:57:04;-1.90;99.90
57664;DHT22;43493;53.098;6.064;2022-12-18T09:59:36;-1.90;99.90
57664;DHT22;43493;53.098;6.064;2022-12-18T10:02:22;-1.90;99.90
57664;DHT22;43493;53.098;6.064;2022-12-18T10:05:13;-1.90;99.90
57664;DHT22;43493;53.098;6.064;2022-12-18T10:10:57;-1.90;99.90
57664;DHT22;43493;53.098;6.064;2022-12-18T10:13:34;-1.90;99.90
57664;DHT22;43493;53.098;6.064;2022-12-18T10:16:25;-2.00;99.90
57664;DHT22;43493;53.098;6.064;2022-12-18T10:21:35;-1.90;99.90
57664;DHT22;43493;53.098;6.064;2022-12-18T10:26:53;-1.90;99.90
57664;DHT22;43493;53.098;6.064;2022-12-18T10:29:21;-1.90;99.90
57664;DHT22;43493;53.098;6.064;2022-12-18T10:31:47;-1.80;99.90
57664;DHT22;43493;53.098;6.064;2022-12-18T10:34:13;-1.80;99.90
57664;DHT22;43493;53.098;6.064;2022-12-18T10:36:39;-1.80;99.90
57664;DHT22;43493;53.098;6.064;2022-12-18T10:39:35;-1.80;99.90
57664;DHT22;43493;53.098;6.064;2022-12-18T10:42:11;-1.80;99.90
57664;DHT22;43493;53.098;6.064;2022-12-18T10:44:41;-1.80;99.90
57664;DHT22;43493;53.098;6.064;2022-12-18T10:47:14;-1.80;99.90
57664;DHT22;43493;53.098;6.064;2022-12-18T10:49:51;-1.80;99.90
57664;DHT22;43493;53.098;6.064;2022-12-18T10:52:22;-1.70;99.90
57664;DHT22;43493;53.098;6.064;2022-12-18T10:54:52;-1.70;99.90
57664;DHT22;43493;53.098;6.064;2022-12-18T10:57:38;-1.70;99.90
57664;DHT22;43493;53.098;6.064;2022-12-18T11:02:45;-1.70;99.90
57664;DHT22;43493;53.098;6.064;2022-12-18T11:07:54;-1.60;99.90
57664;DHT22;43493;53.098;6.064;2022-12-18T11:10:32;-1.60;99.90
57664;DHT22;43493;53.098;6.064;2022-12-18T11:13:12;-1.50;99.90
57664;DHT22;43493;53.098;6.064;2022-12-18T11:15:41;-1.50;99.90
57664;DHT22;43493;53.098;6.064;2022-12-18T11:18:17;-1.50;99.90
57664;DHT22;43493;53.098;6.064;2022-12-18T11:20:52;-1.40;99.90
57664;DHT22;43493;53.098;6.064;2022-12-18T11:23:19;-1.50;99.90
57664;DHT22;43493;53.098;6.064;2022-12-18T11:26:01;-1.50;99.90
57664;DHT22;43493;53.098;6.064;2022-12-18T11:28:50;-1.40;99.90
57664;DHT22;43493;53.098;6.064;2022-12-18T11:31:28;-1.40;99.90
57664;DHT22;43493;53.098;6.064;2022-12-18T11:34:04;-1.40;99.90
57664;DHT22;43493;53.098;6.064;2022-12-18T11:36:44;-1.40;99.90
57664;DHT22;43493;53.098;6.064;2022-12-18T11:41:54;-1.40;99.90
57664;DHT22;43493;53.098;6.064;2022-12-18T11:50:17;-1.30;99.90
57664;DHT22;43493;53.098;6.064;2022-12-18T11:52:44;-1.30;99.90
57664;DHT22;43493;53.098;6.064;2022-12-18T11:57:58;-1.20;99.90
57664;DHT22;43493;53.098;6.064;2022-12-18T12:00:25;-1.20;99.90
57664;DHT22;43493;53.098;6.064;2022-12-18T12:03:02;-1.20;99.90
57664;DHT22;43493;53.098;6.064;2022-12-18T12:06:03;-1.20;99.90
57664;DHT22;43493;53.098;6.064;2022-12-18T12:08:35;-1.10;99.90
57664;DHT22;43493;53.098;6.064;2022-12-18T12:11:35;-1.20;99.90
57664;DHT22;43493;53.098;6.064;2022-12-18T12:19:47;-1.10;99.90
57664;DHT22;43493;53.098;6.064;2022-12-18T12:22:24;-1.10;99.90
57664;DHT22;43493;53.098;6.064;2022-12-18T12:30:21;-1.00;99.90
57664;DHT22;43493;53.098;6.064;2022-12-18T12:33:22;-1.00;99.90
57664;DHT22;43493;53.098;6.064;2022-12-18T12:38:43;-0.90;99.90
57664;DHT22;43493;53.098;6.064;2022-12-18T12:41:19;-0.90;99.90
57664;DHT22;43493;53.098;6.064;2022-12-18T12:44:08;-0.80;99.90
57664;DHT22;43493;53.098;6.064;2022-12-18T12:46:38;-0.80;99.90
57664;DHT22;43493;53.098;6.064;2022-12-18T12:49:11;-0.80;99.90
57664;DHT22;43493;53.098;6.064;2022-12-18T12:51:41;-0.80;99.90
57664;DHT22;43493;53.098;6.064;2022-12-18T12:54:19;-0.70;99.90
57664;DHT22;43493;53.098;6.064;2022-12-18T12:59:46;-0.70;99.90
57664;DHT22;43493;53.098;6.064;2022-12-18T13:05:08;-0.70;99.90
57664;DHT22;43493;53.098;6.064;2022-12-18T13:07:56;-0.60;99.90
57664;DHT22;43493;53.098;6.064;2022-12-18T13:10:26;-0.70;99.90
57664;DHT22;43493;53.098;6.064;2022-12-18T13:13:04;-0.50;99.90
57664;DHT22;43493;53.098;6.064;2022-12-18T13:18:21;-0.60;99.90
57664;DHT22;43493;53.098;6.064;2022-12-18T13:26:37;-0.60;99.90
57664;DHT22;43493;53.098;6.064;2022-12-18T13:34:18;-0.50;99.90
57664;DHT22;43493;53.098;6.064;2022-12-18T13:36:45;-0.50;99.90
57664;DHT22;43493;53.098;6.064;2022-12-18T13:41:40;-0.40;99.90
57664;DHT22;43493;53.098;6.064;2022-12-18T13:46:48;-0.40;99.90
57664;DHT22;43493;53.098;6.064;2022-12-18T13:49:38;-0.40;99.90
57664;DHT22;43493;53.098;6.064;2022-12-18T13:52:17;-0.40;99.90
57664;DHT22;43493;53.098;6.064;2022-12-18T13:54:47;-0.40;99.90
57664;DHT22;43493;53.098;6.064;2022-12-18T13:57:32;-0.50;99.90
57664;DHT22;43493;53.098;6.064;2022-12-18T13:59:58;-0.40;99.90
57664;DHT22;43493;53.098;6.064;2022-12-18T14:02:37;-0.40;99.90
57664;DHT22;43493;53.098;6.064;2022-12-18T14:05:04;-0.40;99.90
57664;DHT22;43493;53.098;6.064;2022-12-18T14:07:30;-0.40;99.90
57664;DHT22;43493;53.098;6.064;2022-12-18T14:09:58;-0.50;99.90
57664;DHT22;43493;53.098;6.064;2022-12-18T14:12:31;-0.50;99.90
57664;DHT22;43493;53.098;6.064;2022-12-18T14:15:33;-0.50;99.90
57664;DHT22;43493;53.098;6.064;2022-12-18T14:20:47;-0.50;99.90
57664;DHT22;43493;53.098;6.064;2022-12-18T14:25:51;-0.50;99.90
57664;DHT22;43493;53.098;6.064;2022-12-18T14:28:16;-0.50;99.90
57664;DHT22;43493;53.098;6.064;2022-12-18T14:30:44;-0.50;99.90
57664;DHT22;43493;53.098;6.064;2022-12-18T14:33:14;-0.40;99.90
57664;DHT22;43493;53.098;6.064;2022-12-18T14:35:43;-0.50;99.90
57664;DHT22;43493;53.098;6.064;2022-12-18T14:38:30;-0.50;99.90
57664;DHT22;43493;53.098;6.064;2022-12-18T14:41:01;-0.50;99.90
57664;DHT22;43493;53.098;6.064;2022-12-18T14:43:31;-0.50;99.90
57664;DHT22;43493;53.098;6.064;2022-12-18T14:45:57;-0.50;99.90
57664;DHT22;43493;53.098;6.064;2022-12-18T14:48:41;-0.50;99.90
57664;DHT22;43493;53.098;6.064;2022-12-18T14:56:31;-0.60;99.90
57664;DHT22;43493;53.098;6.064;2022-12-18T14:59:03;-0.60;99.90
57664;DHT22;43493;53.098;6.064;2022-12-18T15:01:38;-0.60;99.90
57664;DHT22;43493;53.098;6.064;2022-12-18T15:04:19;-0.60;99.90
57664;DHT22;43493;53.098;6.064;2022-12-18T15:06:48;-0.60;99.90
57664;DHT22;43493;53.098;6.064;2022-12-18T15:09:24;-0.60;99.90
57664;DHT22;43493;53.098;6.064;2022-12-18T15:11:57;-0.60;99.90
57664;DHT22;43493;53.098;6.064;2022-12-18T15:14:40;-0.60;99.90
57664;DHT22;43493;53.098;6.064;2022-12-18T15:17:18;-0.60;99.90
57664;DHT22;43493;53.098;6.064;2022-12-18T15:19:45;-0.60;99.90
57664;DHT22;43493;53.098;6.064;2022-12-18T15:22:19;-0.60;99.90
57664;DHT22;43493;53.098;6.064;2022-12-18T15:24:46;-0.60;99.90
57664;DHT22;43493;53.098;6.064;2022-12-18T15:27:26;-0.60;99.90
57664;DHT22;43493;53.098;6.064;2022-12-18T15:32:36;-0.50;99.90
57664;DHT22;43493;53.098;6.064;2022-12-18T15:35:16;-0.50;99.90
57664;DHT22;43493;53.098;6.064;2022-12-18T15:37:42;-0.50;99.90
57664;DHT22;43493;53.098;6.064;2022-12-18T15:40:13;-0.60;99.90
57664;DHT22;43493;53.098;6.064;2022-12-18T15:42:39;-0.60;99.90
57664;DHT22;43493;53.098;6.064;2022-12-18T15:45:23;-0.40;99.90
57664;DHT22;43493;53.098;6.064;2022-12-18T15:47:49;-0.50;99.90
57664;DHT22;43493;53.098;6.064;2022-12-18T15:50:15;-0.60;99.90
57664;DHT22;43493;53.098;6.064;2022-12-18T15:52:45;-0.50;99.90
57664;DHT22;43493;53.098;6.064;2022-12-18T15:55:13;-0.50;99.90
57664;DHT22;43493;53.098;6.064;2022-12-18T15:57:57;-0.50;99.90
57664;DHT22;43493;53.098;6.064;2022-12-18T16:00:23;-0.60;99.90
57664;DHT22;43493;53.098;6.064;2022-12-18T16:02:49;-0.50;99.90
57664;DHT22;43493;53.098;6.064;2022-12-18T16:05:16;-0.60;99.90
57664;DHT22;43493;53.098;6.064;2022-12-18T16:07:43;-0.60;99.90
57664;DHT22;43493;53.098;6.064;2022-12-18T16:10:09;-0.60;99.90
57664;DHT22;43493;53.098;6.064;2022-12-18T16:12:35;-0.60;99.90
57664;DHT22;43493;53.098;6.064;2022-12-18T16:15:02;-0.60;99.90
57664;DHT22;43493;53.098;6.064;2022-12-18T16:17:28;-0.60;99.90
57664;DHT22;43493;53.098;6.064;2022-12-18T16:19:53;-0.60;99.90
57664;DHT22;43493;53.098;6.064;2022-12-18T16:22:28;-0.60;99.90
57664;DHT22;43493;53.098;6.064;2022-12-18T16:24:54;-0.60;99.90
57664;DHT22;43493;53.098;6.064;2022-12-18T16:27:22;-0.50;99.90
57664;DHT22;43493;53.098;6.064;2022-12-18T16:29:48;-0.50;99.90
57664;DHT22;43493;53.098;6.064;2022-12-18T16:32:17;-0.50;99.90
57664;DHT22;43493;53.098;6.064;2022-12-18T16:34:43;-0.50;99.90
57664;DHT22;43493;53.098;6.064;2022-12-18T16:37:11;-0.50;99.90
57664;DHT22;43493;53.098;6.064;2022-12-18T16:39:37;-0.20;99.90
57664;DHT22;43493;53.098;6.064;2022-12-18T16:42:15;-0.50;99.90
57664;DHT22;43493;53.098;6.064;2022-12-18T16:44:43;-0.40;99.90
57664;DHT22;43493;53.098;6.064;2022-12-18T16:47:09;-0.50;99.90
57664;DHT22;43493;53.098;6.064;2022-12-18T16:49:35;-0.20;99.90
57664;DHT22;43493;53.098;6.064;2022-12-18T16:52:00;0.00;99.90
57664;DHT22;43493;53.098;6.064;2022-12-18T16:54:26;-0.40;99.90
57664;DHT22;43493;53.098;6.064;2022-12-18T16:56:55;-0.30;99.90
57664;DHT22;43493;53.098;6.064;2022-12-18T16:59:21;-0.40;99.90
57664;DHT22;43493;53.098;6.064;2022-12-18T17:01:47;-0.40;99.90
57664;DHT22;43493;53.098;6.064;2022-12-18T17:04:13;-0.30;99.90
57664;DHT22;43493;53.098;6.064;2022-12-18T17:06:41;-0.30;99.90
57664;DHT22;43493;53.098;6.064;2022-12-18T17:09:12;-0.30;99.90
57664;DHT22;43493;53.098;6.064;2022-12-18T17:11:41;-0.30;99.90
57664;DHT22;43493;53.098;6.064;2022-12-18T17:14:17;-0.30;99.90
57664;DHT22;43493;53.098;6.064;2022-12-18T17:19:09;-0.20;99.90
57664;DHT22;43493;53.098;6.064;2022-12-18T17:21:35;0.10;99.90
57664;DHT22;43493;53.098;6.064;2022-12-18T17:24:02;-0.30;99.90
57664;DHT22;43493;53.098;6.064;2022-12-18T17:26:28;-0.20;99.90
57664;DHT22;43493;53.098;6.064;2022-12-18T17:28:57;-0.30;99.90